sensor_id;sensor_type;location;lat;lon;timestamp;pressure;altitude;pressure_sealevel;temperature;humidity
59608;BME280;45426;44.726;10.390;2023-03-03T00:00:11;100693.09;;;7.45;100.00
59608;BME280;45426;44.726;10.390;2023-03-03T00:02:37;100696.69;;;7.40;100.00
59608;BME280;45426;44.726;10.390;2023-03-03T00:05:02;100698.94;;;7.24;100.00
59608;BME280;45426;44.726;10.390;2023-03-03T00:07:27;100696.94;;;7.30;100.00
59608;BME280;45426;44.726;10.390;2023-03-03T00:09:53;100700.28;;;7.49;100.00
59608;BME280;45426;44.726;10.390;2023-03-03T00:12:27;100707.59;;;7.49;100.00
59608;BME280;45426;44.726;10.390;2023-03-03T00:14:53;100707.44;;;7.31;100.00
59608;BME280;45426;44.726;10.390;2023-03-03T00:17:29;100708.34;;;7.27;100.00
59608;BME280;45426;44.726;10.390;2023-03-03T00:19:56;100713.28;;;6.83;100.00
59608;BME280;45426;44.726;10.390;2023-03-03T00:59:34;100676.84;;;6.94;100.00
59608;BME280;45426;44.726;10.390;2023-03-03T01:01:59;100676.16;;;6.75;100.00
59608;BME280;45426;44.726;10.390;2023-03-03T01:04:25;100676.06;;;6.66;100.00
59608;BME280;45426;44.726;10.390;2023-03-03T01:06:50;100681.91;;;6.27;100.00
59608;BME280;45426;44.726;10.390;2023-03-03T01:09:15;100679.22;;;6.40;100.00
59608;BME280;45426;44.726;10.390;2023-03-03T01:11:41;100664.53;;;6.47;100.00
59608;BME280;45426;44.726;10.390;2023-03-03T01:14:06;100663.94;;;6.64;100.00
59608;BME280;45426;44.726;10.390;2023-03-03T01:16:33;100666.25;;;6.70;100.00
59608;BME280;45426;44.726;10.390;2023-03-03T01:18:58;100659.47;;;6.87;100.00
59608;BME280;45426;44.726;10.390;2023-03-03T01:21:24;100656.53;;;6.97;100.00
59608;BME280;45426;44.726;10.390;2023-03-03T01:23:49;100651.72;;;7.08;100.00
59608;BME280;45426;44.726;10.390;2023-03-03T01:26:15;100655.03;;;6.91;100.00
59608;BME280;45426;44.726;10.390;2023-03-03T01:28:40;100654.34;;;6.71;100.00
59608;BME280;45426;44.726;10.390;2023-03-03T01:31:06;100664.16;;;6.07;100.00
59608;BME280;45426;44.726;10.390;2023-03-03T01:33:33;100664.28;;;5.63;100.00
59608;BME280;45426;44.726;10.390;2023-03-03T01:35:59;100658.69;;;5.41;100.00
59608;BME280;45426;44.726;10.390;2023-03-03T01:38:24;100658.19;;;5.39;100.00
59608;BME280;45426;44.726;10.390;2023-03-03T01:40:55;100665.81;;;5.51;100.00
59608;BME280;45426;44.726;10.390;2023-03-03T01:43:21;100668.16;;;5.57;100.00
59608;BME280;45426;44.726;10.390;2023-03-03T01:50:50;100640.91;;;6.11;100.00
59608;BME280;45426;44.726;10.390;2023-03-03T01:53:22;100647.72;;;6.22;100.00
59608;BME280;45426;44.726;10.390;2023-03-03T01:55:49;100643.88;;;5.76;100.00
59608;BME280;45426;44.726;10.390;2023-03-03T01:58:21;100647.09;;;5.59;100.00
59608;BME280;45426;44.726;10.390;2023-03-03T02:00:58;100638.06;;;5.50;100.00
59608;BME280;45426;44.726;10.390;2023-03-03T02:03:25;100634.78;;;5.53;100.00
59608;BME280;45426;44.726;10.390;2023-03-03T02:05:54;100629.19;;;5.31;100.00
59608;BME280;45426;44.726;10.390;2023-03-03T02:08:27;100627.94;;;5.23;100.00
59608;BME280;45426;44.726;10.390;2023-03-03T02:10:56;100627.03;;;4.90;100.00
59608;BME280;45426;44.726;10.390;2023-03-03T02:13:22;100629.28;;;4.82;100.00
59608;BME280;45426;44.726;10.390;2023-03-03T02:15:47;100634.03;;;4.91;100.00
59608;BME280;45426;44.726;10.390;2023-03-03T02:18:14;100629.97;;;4.93;100.00
59608;BME280;45426;44.726;10.390;2023-03-03T02:26:23;100621.63;;;4.71;100.00
59608;BME280;45426;44.726;10.390;2023-03-03T02:28:49;100621.81;;;4.79;100.00
59608;BME280;45426;44.726;10.390;2023-03-03T02:31:19;100623.56;;;4.65;100.00
59608;BME280;45426;44.726;10.390;2023-03-03T02:33:47;100620.31;;;4.68;100.00
59608;BME280;45426;44.726;10.390;2023-03-03T02:36:17;100624.88;;;4.67;100.00
59608;BME280;45426;44.726;10.390;2023-03-03T02:38:59;100626.72;;;4.48;100.00
59608;BME280;45426;44.726;10.390;2023-03-03T02:44:04;100622.78;;;4.64;100.00
59608;BME280;45426;44.726;10.390;2023-03-03T02:46:34;100615.31;;;4.80;100.00
59608;BME280;45426;44.726;10.390;2023-03-03T02:49:01;100611.47;;;4.86;100.00
59608;BME280;45426;44.726;10.390;2023-03-03T02:51:27;100612.94;;;4.55;100.00
59608;BME280;45426;44.726;10.390;2023-03-03T02:53:52;100610.06;;;4.46;100.00
59608;BME280;45426;44.726;10.390;2023-03-03T02:56:18;100609.13;;;4.80;100.00
59608;BME280;45426;44.726;10.390;2023-03-03T02:58:43;100602.81;;;5.09;100.00
59608;BME280;45426;44.726;10.390;2023-03-03T03:01:08;100602.19;;;5.17;100.00
59608;BME280;45426;44.726;10.390;2023-03-03T03:03:34;100599.25;;;4.94;100.00
59608;BME280;45426;44.726;10.390;2023-03-03T03:05:59;100597.25;;;5.05;100.00
59608;BME280;45426;44.726;10.390;2023-03-03T03:08:25;100599.25;;;4.94;100.00
59608;BME280;45426;44.726;10.390;2023-03-03T03:10:50;100599.56;;;4.93;100.00
59608;BME280;45426;44.726;10.390;2023-03-03T03:13:16;100596.78;;;4.79;100.00
59608;BME280;45426;44.726;10.390;2023-03-03T03:15:44;100599.56;;;4.93;100.00
59608;BME280;45426;44.726;10.390;2023-03-03T03:18:10;100592.31;;;4.69;100.00
59608;BME280;45426;44.726;10.390;2023-03-03T03:20:36;100596.28;;;4.53;100.00
59608;BME280;45426;44.726;10.390;2023-03-03T03:23:04;100594.63;;;4.57;100.00
59608;BME280;45426;44.726;10.390;2023-03-03T03:25:30;100595.44;;;4.76;100.00
59608;BME280;45426;44.726;10.390;2023-03-03T03:27:55;100591.97;;;4.76;100.00
59608;BME280;45426;44.726;10.390;2023-03-03T03:30:20;100592.69;;;4.81;100.00
59608;BME280;45426;44.726;10.390;2023-03-03T03:32:46;100589.84;;;4.92;100.00
59608;BME280;45426;44.726;10.390;2023-03-03T03:35:12;100586.06;;;5.31;100.00
59608;BME280;45426;44.726;10.390;2023-03-03T03:37:38;100579.47;;;5.23;100.00
59608;BME280;45426;44.726;10.390;2023-03-03T03:40:03;100587.03;;;5.02;100.00
59608;BME280;45426;44.726;10.390;2023-03-03T03:42:29;100581.28;;;4.90;100.00
59608;BME280;45426;44.726;10.390;2023-03-03T03:44:55;100589.56;;;4.74;100.00
59608;BME280;45426;44.726;10.390;2023-03-03T03:47:20;100592.53;;;4.92;100.00
59608;BME280;45426;44.726;10.390;2023-03-03T03:49:46;100589.28;;;4.76;100.00
59608;BME280;45426;44.726;10.390;2023-03-03T03:52:11;100588.75;;;4.74;100.00
59608;BME280;45426;44.726;10.390;2023-03-03T03:54:37;100591.50;;;4.69;100.00
59608;BME280;45426;44.726;10.390;2023-03-03T03:57:02;100586.34;;;4.72;100.00
59608;BME280;45426;44.726;10.390;2023-03-03T03:59:28;100589.47;;;4.60;100.00
59608;BME280;45426;44.726;10.390;2023-03-03T04:01:53;100588.22;;;4.28;100.00
59608;BME280;45426;44.726;10.390;2023-03-03T04:04:18;100579.59;;;4.51;100.00
59608;BME280;45426;44.726;10.390;2023-03-03T04:06:44;100576.53;;;4.38;100.00
59608;BME280;45426;44.726;10.390;2023-03-03T04:09:10;100575.31;;;4.74;100.00
59608;BME280;45426;44.726;10.390;2023-03-03T04:11:35;100578.78;;;4.74;100.00
59608;BME280;45426;44.726;10.390;2023-03-03T04:14:00;100570.16;;;4.77;100.00
59608;BME280;45426;44.726;10.390;2023-03-03T04:16:26;100576.66;;;4.71;100.00
59608;BME280;45426;44.726;10.390;2023-03-03T04:18:51;100572.34;;;4.51;100.00
59608;BME280;45426;44.726;10.390;2023-03-03T04:21:17;100571.16;;;4.38;100.00
59608;BME280;45426;44.726;10.390;2023-03-03T04:23:42;100568.19;;;4.16;100.00
59608;BME280;45426;44.726;10.390;2023-03-03T04:26:08;100577.75;;;3.98;100.00
59608;BME280;45426;44.726;10.390;2023-03-03T04:28:34;100575.59;;;4.24;100.00
59608;BME280;45426;44.726;10.390;2023-03-03T04:31:00;100568.75;;;4.13;100.00
59608;BME280;45426;44.726;10.390;2023-03-03T04:33:25;100568.19;;;4.16;100.00
59608;BME280;45426;44.726;10.390;2023-03-03T04:35:50;100566.41;;;4.06;100.00
59608;BME280;45426;44.726;10.390;2023-03-03T04:38:16;100564.38;;;3.93;100.00
59608;BME280;45426;44.726;10.390;2023-03-03T04:40:42;100562.97;;;4.00;100.00
59608;BME280;45426;44.726;10.390;2023-03-03T04:43:08;100563.91;;;4.09;100.00
59608;BME280;45426;44.726;10.390;2023-03-03T04:45:35;100562.34;;;4.08;100.00
59608;BME280;45426;44.726;10.390;2023-03-03T04:48:00;100567.91;;;4.17;100.00
59608;BME280;45426;44.726;10.390;2023-03-03T04:50:26;100562.13;;;4.29;100.00
59608;BME280;45426;44.726;10.390;2023-03-03T04:52:52;100560.06;;;4.21;100.00
59608;BME280;45426;44.726;10.390;2023-03-03T04:55:17;100565.09;;;4.27;100.00
59608;BME280;45426;44.726;10.390;2023-03-03T04:57:43;100559.94;;;4.31;100.00
59608;BME280;45426;44.726;10.390;2023-03-03T05:00:10;100560.41;;;4.38;100.00
59608;BME280;45426;44.726;10.390;2023-03-03T05:02:38;100558.03;;;4.07;100.00
59608;BME280;45426;44.726;10.390;2023-03-03T05:05:04;100555.09;;;4.04;100.00
59608;BME280;45426;44.726;10.390;2023-03-03T05:07:30;100563.09;;;3.85;100.00
59608;BME280;45426;44.726;10.390;2023-03-03T05:09:55;100567.59;;;3.95;100.00
59608;BME280;45426;44.726;10.390;2023-03-03T05:12:21;100568.84;;;4.02;100.00
59608;BME280;45426;44.726;10.390;2023-03-03T05:14:46;100560.16;;;4.11;100.00
59608;BME280;45426;44.726;10.390;2023-03-03T05:17:12;100562.91;;;4.05;100.00
59608;BME280;45426;44.726;10.390;2023-03-03T05:19:38;100566.41;;;4.06;100.00
59608;BME280;45426;44.726;10.390;2023-03-03T05:22:04;100568.28;;;4.05;100.00
59608;BME280;45426;44.726;10.390;2023-03-03T05:24:29;100571.03;;;4.00;100.00
59608;BME280;45426;44.726;10.390;2023-03-03T05:26:55;100573.56;;;4.16;100.00
59608;BME280;45426;44.726;10.390;2023-03-03T05:29:20;100568.56;;;4.04;100.00
59608;BME280;45426;44.726;10.390;2023-03-03T05:31:45;100560.69;;;4.13;100.00
59608;BME280;45426;44.726;10.390;2023-03-03T05:34:11;100568.19;;;4.16;100.00
59608;BME280;45426;44.726;10.390;2023-03-03T05:36:36;100572.97;;;4.19;100.00
59608;BME280;45426;44.726;10.390;2023-03-03T05:39:02;100576.69;;;3.99;100.00
59608;BME280;45426;44.726;10.390;2023-03-03T05:41:29;100571.31;;;3.99;100.00
59608;BME280;45426;44.726;10.390;2023-03-03T05:43:54;100574.72;;;3.80;100.00
59608;BME280;45426;44.726;10.390;2023-03-03T05:46:20;100568.00;;;3.78;100.00
59608;BME280;45426;44.726;10.390;2023-03-03T05:48:45;100560.75;;;3.78;100.00
59608;BME280;45426;44.726;10.390;2023-03-03T05:51:11;100568.34;;;3.71;100.00
59608;BME280;45426;44.726;10.390;2023-03-03T05:53:36;100568.53;;;3.80;100.00
59608;BME280;45426;44.726;10.390;2023-03-03T05:56:02;100563.44;;;3.78;100.00
59608;BME280;45426;44.726;10.390;2023-03-03T05:58:27;100564.72;;;3.86;100.00
59608;BME280;45426;44.726;10.390;2023-03-03T06:00:53;100561.50;;;3.84;100.00
59608;BME280;45426;44.726;10.390;2023-03-03T06:03:19;100560.03;;;3.97;100.00
59608;BME280;45426;44.726;10.390;2023-03-03T06:05:44;100552.13;;;4.05;100.00
59608;BME280;45426;44.726;10.390;2023-03-03T06:08:09;100550.66;;;3.94;100.00
59608;BME280;45426;44.726;10.390;2023-03-03T06:10:35;100558.72;;;3.94;100.00
59608;BME280;45426;44.726;10.390;2023-03-03T06:13:00;100556.69;;;4.10;100.00
59608;BME280;45426;44.726;10.390;2023-03-03T06:15:26;100553.31;;;4.23;100.00
59608;BME280;45426;44.726;10.390;2023-03-03T06:17:51;100555.72;;;4.25;100.00
59608;BME280;45426;44.726;10.390;2023-03-03T06:20:17;100557.09;;;4.65;100.00
59608;BME280;45426;44.726;10.390;2023-03-03T06:22:42;100555.53;;;4.83;100.00
59608;BME280;45426;44.726;10.390;2023-03-03T06:25:08;100555.16;;;5.09;100.00
59608;BME280;45426;44.726;10.390;2023-03-03T06:27:34;100559.44;;;5.29;100.00
59608;BME280;45426;44.726;10.390;2023-03-03T06:29:59;100553.09;;;5.72;100.00
59608;BME280;45426;44.726;10.390;2023-03-03T06:32:25;100555.50;;;5.21;100.00
59608;BME280;45426;44.726;10.390;2023-03-03T06:34:50;100552.66;;;4.94;100.00
59608;BME280;45426;44.726;10.390;2023-03-03T06:37:16;100557.63;;;5.24;100.00
59608;BME280;45426;44.726;10.390;2023-03-03T06:39:41;100554.56;;;5.12;100.00
59608;BME280;45426;44.726;10.390;2023-03-03T06:42:07;100560.63;;;5.56;100.00
59608;BME280;45426;44.726;10.390;2023-03-03T06:44:34;100557.19;;;6.16;100.00
59608;BME280;45426;44.726;10.390;2023-03-03T06:46:59;100563.06;;;5.57;100.00
59608;BME280;45426;44.726;10.390;2023-03-03T06:49:25;100565.19;;;6.35;100.00
59608;BME280;45426;44.726;10.390;2023-03-03T06:51:50;100565.72;;;7.69;100.00
59608;BME280;45426;44.726;10.390;2023-03-03T06:54:18;100557.22;;;8.64;100.00
59608;BME280;45426;44.726;10.390;2023-03-03T06:56:45;100552.13;;;8.80;100.00
59608;BME280;45426;44.726;10.390;2023-03-03T06:59:18;100562.38;;;9.09;100.00
59608;BME280;45426;44.726;10.390;2023-03-03T07:01:46;100571.63;;;9.52;100.00
59608;BME280;45426;44.726;10.390;2023-03-03T07:04:29;100575.22;;;9.65;100.00
59608;BME280;45426;44.726;10.390;2023-03-03T07:07:16;100567.88;;;10.90;100.00
59608;BME280;45426;44.726;10.390;2023-03-03T07:09:43;100565.03;;;11.28;100.00
59608;BME280;45426;44.726;10.390;2023-03-03T07:12:12;100564.16;;;12.28;100.00
59608;BME280;45426;44.726;10.390;2023-03-03T07:14:47;100565.50;;;12.46;100.00
59608;BME280;45426;44.726;10.390;2023-03-03T07:17:18;100568.44;;;12.66;100.00
59608;BME280;45426;44.726;10.390;2023-03-03T07:19:45;100570.75;;;13.89;100.00
59608;BME280;45426;44.726;10.390;2023-03-03T07:22:20;100575.06;;;15.05;100.00
59608;BME280;45426;44.726;10.390;2023-03-03T07:24:48;100580.72;;;14.45;100.00
59608;BME280;45426;44.726;10.390;2023-03-03T07:27:26;100580.19;;;14.39;100.00
59608;BME280;45426;44.726;10.390;2023-03-03T07:29:53;100576.41;;;14.60;100.00
59608;BME280;45426;44.726;10.390;2023-03-03T07:34:51;100583.88;;;14.47;100.00
59608;BME280;45426;44.726;10.390;2023-03-03T07:37:37;100595.34;;;14.52;100.00
59608;BME280;45426;44.726;10.390;2023-03-03T07:40:47;100588.03;;;15.08;100.00
59608;BME280;45426;44.726;10.390;2023-03-03T07:43:40;100588.97;;;14.80;100.00
59608;BME280;45426;44.726;10.390;2023-03-03T07:48:47;100582.09;;;19.58;100.00
59608;BME280;45426;44.726;10.390;2023-03-03T07:51:22;100590.97;;;16.73;100.00
59608;BME280;45426;44.726;10.390;2023-03-03T07:53:50;100590.66;;;18.14;100.00
59608;BME280;45426;44.726;10.390;2023-03-03T07:56:29;100589.66;;;20.30;100.00
59608;BME280;45426;44.726;10.390;2023-03-03T07:58:58;100600.81;;;19.13;100.00
59608;BME280;45426;44.726;10.390;2023-03-03T08:01:34;100604.63;;;20.18;100.00
59608;BME280;45426;44.726;10.390;2023-03-03T08:04:10;100604.59;;;20.86;100.00
59608;BME280;45426;44.726;10.390;2023-03-03T08:06:43;100604.94;;;21.06;100.00
59608;BME280;45426;44.726;10.390;2023-03-03T08:11:34;100604.22;;;20.16;100.00
59608;BME280;45426;44.726;10.390;2023-03-03T08:14:00;100608.53;;;19.81;100.00
59608;BME280;45426;44.726;10.390;2023-03-03T08:16:46;100607.78;;;20.27;100.00
59608;BME280;45426;44.726;10.390;2023-03-03T08:19:14;100619.59;;;16.99;100.00
59608;BME280;45426;44.726;10.390;2023-03-03T08:21:41;100615.66;;;16.00;100.00
59608;BME280;45426;44.726;10.390;2023-03-03T08:24:06;100617.72;;;16.30;100.00
59608;BME280;45426;44.726;10.390;2023-03-03T08:26:32;100618.88;;;15.83;100.00
59608;BME280;45426;44.726;10.390;2023-03-03T08:28:57;100622.94;;;14.00;100.00
59608;BME280;45426;44.726;10.390;2023-03-03T08:31:23;100612.59;;;16.52;100.00
59608;BME280;45426;44.726;10.390;2023-03-03T08:33:48;100613.75;;;15.81;100.00
59608;BME280;45426;44.726;10.390;2023-03-03T08:36:13;100620.50;;;16.57;100.00
59608;BME280;45426;44.726;10.390;2023-03-03T08:38:41;100615.00;;;16.07;100.00
59608;BME280;45426;44.726;10.390;2023-03-03T08:41:06;100609.81;;;17.01;100.00
59608;BME280;45426;44.726;10.390;2023-03-03T08:43:32;100609.16;;;17.42;100.00
59608;BME280;45426;44.726;10.390;2023-03-03T08:45:59;100609.47;;;17.37;100.00
59608;BME280;45426;44.726;10.390;2023-03-03T08:48:26;100619.56;;;15.99;100.00
59608;BME280;45426;44.726;10.390;2023-03-03T08:50:53;100604.16;;;17.17;100.00
59608;BME280;45426;44.726;10.390;2023-03-03T08:53:19;100602.63;;;17.91;100.00
59608;BME280;45426;44.726;10.390;2023-03-03T08:55:45;100609.09;;;18.10;100.00
59608;BME280;45426;44.726;10.390;2023-03-03T08:58:12;100610.47;;;18.30;100.00
59608;BME280;45426;44.726;10.390;2023-03-03T09:00:37;100620.00;;;18.99;100.00
59608;BME280;45426;44.726;10.390;2023-03-03T09:03:03;100614.16;;;21.70;100.00
59608;BME280;45426;44.726;10.390;2023-03-03T09:05:32;100621.97;;;21.82;100.00
59608;BME280;45426;44.726;10.390;2023-03-03T09:07:57;100621.69;;;21.66;100.00
59608;BME280;45426;44.726;10.390;2023-03-03T09:10:26;100611.75;;;23.15;100.00
59608;BME280;45426;44.726;10.390;2023-03-03T09:12:54;100618.69;;;19.63;100.00
59608;BME280;45426;44.726;10.390;2023-03-03T09:15:26;100613.19;;;19.59;100.00
59608;BME280;45426;44.726;10.390;2023-03-03T09:17:54;100610.53;;;18.41;100.00
59608;BME280;45426;44.726;10.390;2023-03-03T09:20:37;100617.88;;;18.74;100.00
59608;BME280;45426;44.726;10.390;2023-03-03T09:25:46;100622.25;;;21.25;100.00
59608;BME280;45426;44.726;10.390;2023-03-03T09:28:27;100610.25;;;22.68;100.00
59608;BME280;45426;44.726;10.390;2023-03-03T09:30:56;100614.44;;;23.22;100.00
59608;BME280;45426;44.726;10.390;2023-03-03T09:35:51;100615.00;;;22.26;100.00
59608;BME280;45426;44.726;10.390;2023-03-03T09:38:28;100612.75;;;26.01;100.00
59608;BME280;45426;44.726;10.390;2023-03-03T09:49:07;100609.25;;;24.13;100.00
59608;BME280;45426;44.726;10.390;2023-03-03T10:02:55;100622.16;;;17.45;100.00
59608;BME280;45426;44.726;10.390;2023-03-03T10:08:24;100629.41;;;16.27;100.00
59608;BME280;45426;44.726;10.390;2023-03-03T10:11:14;100618.63;;;18.23;100.00
59608;BME280;45426;44.726;10.390;2023-03-03T10:13:57;100625.66;;;18.17;100.00
59608;BME280;45426;44.726;10.390;2023-03-03T10:16:37;100616.59;;;18.65;100.00
59608;BME280;45426;44.726;10.390;2023-03-03T10:30:56;100618.31;;;17.53;100.00
59608;BME280;45426;44.726;10.390;2023-03-03T10:39:10;100618.16;;;17.76;100.00
59608;BME280;45426;44.726;10.390;2023-03-03T10:44:32;100621.19;;;18.42;100.00
59608;BME280;45426;44.726;10.390;2023-03-03T10:53:17;100618.81;;;17.62;100.00
59608;BME280;45426;44.726;10.390;2023-03-03T11:07:09;100619.94;;;16.97;100.00
59608;BME280;45426;44.726;10.390;2023-03-03T11:14:44;100612.59;;;17.05;100.00
59608;BME280;45426;44.726;10.390;2023-03-03T11:17:26;100619.66;;;16.53;100.00
59608;BME280;45426;44.726;10.390;2023-03-03T11:25:24;100616.63;;;16.11;100.00
59608;BME280;45426;44.726;10.390;2023-03-03T11:28:04;100605.16;;;16.52;100.00
59608;BME280;45426;44.726;10.390;2023-03-03T11:33:11;100600.47;;;17.74;100.00
59608;BME280;45426;44.726;10.390;2023-03-03T11:35:52;100600.16;;;16.58;100.00
59608;BME280;45426;44.726;10.390;2023-03-03T11:40:58;100589.53;;;17.40;100.00
59608;BME280;45426;44.726;10.390;2023-03-03T11:43:37;100585.22;;;17.08;100.00
59608;BME280;45426;44.726;10.390;2023-03-03T11:46:12;100580.06;;;17.75;100.00
59608;BME280;45426;44.726;10.390;2023-03-03T11:54:16;100577.44;;;17.14;100.00
59608;BME280;45426;44.726;10.390;2023-03-03T11:56:45;100580.78;;;16.74;100.00
59608;BME280;45426;44.726;10.390;2023-03-03T12:01:55;100569.19;;;16.07;100.00
59608;BME280;45426;44.726;10.390;2023-03-03T12:04:36;100566.91;;;17.54;100.00
59608;BME280;45426;44.726;10.390;2023-03-03T12:13:02;100550.53;;;17.64;100.00
59608;BME280;45426;44.726;10.390;2023-03-03T12:15:40;100551.28;;;17.24;100.00
59608;BME280;45426;44.726;10.390;2023-03-03T12:18:22;100563.31;;;16.59;100.00
59608;BME280;45426;44.726;10.390;2023-03-03T12:26:26;100553.53;;;16.31;100.00
59608;BME280;45426;44.726;10.390;2023-03-03T12:29:05;100544.09;;;15.40;100.00
59608;BME280;45426;44.726;10.390;2023-03-03T12:44:43;100536.59;;;15.37;100.00
59608;BME280;45426;44.726;10.390;2023-03-03T12:57:39;100523.88;;;15.67;100.00
59608;BME280;45426;44.726;10.390;2023-03-03T13:00:13;100532.66;;;15.57;100.00
59608;BME280;45426;44.726;10.390;2023-03-03T13:05:39;100526.41;;;15.99;100.00
59608;BME280;45426;44.726;10.390;2023-03-03T13:11:32;100517.78;;;16.24;100.00
59608;BME280;45426;44.726;10.390;2023-03-03T13:17:00;100512.69;;;16.53;100.00
59608;BME280;45426;44.726;10.390;2023-03-03T13:27:38;100511.69;;;16.64;100.00
59608;BME280;45426;44.726;10.390;2023-03-03T13:30:18;100513.59;;;16.60;100.00
59608;BME280;45426;44.726;10.390;2023-03-03T13:32:53;100523.38;;;16.31;100.00
59608;BME280;45426;44.726;10.390;2023-03-03T13:37:58;100518.13;;;15.53;100.00
59608;BME280;45426;44.726;10.390;2023-03-03T13:40:29;100519.75;;;15.58;100.00
59608;BME280;45426;44.726;10.390;2023-03-03T13:42:58;100517.44;;;15.60;100.00
59608;BME280;45426;44.726;10.390;2023-03-03T13:45:39;100520.25;;;15.63;100.00
59608;BME280;45426;44.726;10.390;2023-03-03T13:48:29;100517.03;;;15.58;100.00
59608;BME280;45426;44.726;10.390;2023-03-03T14:04:53;100507.78;;;16.12;100.00
59608;BME280;45426;44.726;10.390;2023-03-03T14:07:27;100506.28;;;16.15;100.00
59608;BME280;45426;44.726;10.390;2023-03-03T14:15:26;100499.47;;;16.32;100.00
59608;BME280;45426;44.726;10.390;2023-03-03T14:18:12;100501.38;;;15.78;100.00
59608;BME280;45426;44.726;10.390;2023-03-03T14:20:47;100499.25;;;15.71;100.00
59608;BME280;45426;44.726;10.390;2023-03-03T14:23:27;100498.00;;;15.03;100.00
59608;BME280;45426;44.726;10.390;2023-03-03T14:26:07;100492.06;;;15.40;100.00
59608;BME280;45426;44.726;10.390;2023-03-03T14:29:09;100492.63;;;15.49;100.00
59608;BME280;45426;44.726;10.390;2023-03-03T14:31:40;100494.69;;;15.13;100.00
59608;BME280;45426;44.726;10.390;2023-03-03T14:36:39;100483.13;;;15.43;100.00
59608;BME280;45426;44.726;10.390;2023-03-03T14:39:32;100479.38;;;15.08;100.00
59608;BME280;45426;44.726;10.390;2023-03-03T14:41:59;100484.97;;;15.16;100.00
59608;BME280;45426;44.726;10.390;2023-03-03T14:47:32;100479.41;;;14.53;100.00
59608;BME280;45426;44.726;10.390;2023-03-03T14:50:00;100477.25;;;15.21;100.00
59608;BME280;45426;44.726;10.390;2023-03-03T14:52:29;100481.44;;;16.04;100.00
59608;BME280;45426;44.726;10.390;2023-03-03T14:54:59;100486.25;;;15.41;100.00
59608;BME280;45426;44.726;10.390;2023-03-03T14:57:47;100481.28;;;15.27;100.00
59608;BME280;45426;44.726;10.390;2023-03-03T15:05:20;100478.91;;;15.26;100.00
59608;BME280;45426;44.726;10.390;2023-03-03T15:10:35;100486.09;;;15.34;100.00
59608;BME280;45426;44.726;10.390;2023-03-03T15:16:25;100482.88;;;15.09;100.00
59608;BME280;45426;44.726;10.390;2023-03-03T15:21:34;100473.59;;;14.94;100.00
59608;BME280;45426;44.726;10.390;2023-03-03T15:24:37;100478.88;;;14.83;100.00
59608;BME280;45426;44.726;10.390;2023-03-03T15:27:18;100478.56;;;14.88;100.00
59608;BME280;45426;44.726;10.390;2023-03-03T15:30:46;100473.72;;;14.62;100.00
59608;BME280;45426;44.726;10.390;2023-03-03T15:40:51;100475.63;;;14.78;100.00
59608;BME280;45426;44.726;10.390;2023-03-03T15:46:01;100477.22;;;14.98;100.00
59608;BME280;45426;44.726;10.390;2023-03-03T16:13:27;100491.53;;;14.91;100.00
59608;BME280;45426;44.726;10.390;2023-03-03T16:16:02;100495.44;;;14.20;100.00
59608;BME280;45426;44.726;10.390;2023-03-03T16:38:38;100505.84;;;13.98;100.00
59608;BME280;45426;44.726;10.390;2023-03-03T16:41:11;100510.31;;;14.06;100.00
59608;BME280;45426;44.726;10.390;2023-03-03T16:44:03;100515.63;;;13.99;100.00
59608;BME280;45426;44.726;10.390;2023-03-03T16:46:42;100523.34;;;13.97;100.00
59608;BME280;45426;44.726;10.390;2023-03-03T16:57:13;100518.84;;;13.57;100.00
59608;BME280;45426;44.726;10.390;2023-03-03T17:02:51;100519.84;;;13.36;100.00
59608;BME280;45426;44.726;10.390;2023-03-03T17:05:42;100524.31;;;12.88;100.00
59608;BME280;45426;44.726;10.390;2023-03-03T17:16:13;100528.00;;;12.68;100.00
59608;BME280;45426;44.726;10.390;2023-03-03T17:18:59;100548.38;;;12.09;100.00
59608;BME280;45426;44.726;10.390;2023-03-03T17:22:01;100542.34;;;12.28;100.00
59608;BME280;45426;44.726;10.390;2023-03-03T17:29:46;100549.38;;;11.92;100.00
59608;BME280;45426;44.726;10.390;2023-03-03T17:35:30;100565.69;;;11.25;100.00
59608;BME280;45426;44.726;10.390;2023-03-03T17:41:26;100575.19;;;11.19;100.00
59608;BME280;45426;44.726;10.390;2023-03-03T17:44:01;100579.16;;;11.00;100.00
59608;BME280;45426;44.726;10.390;2023-03-03T17:46:32;100582.94;;;11.08;100.00
59608;BME280;45426;44.726;10.390;2023-03-03T17:49:05;100588.22;;;10.54;100.00
59608;BME280;45426;44.726;10.390;2023-03-03T17:51:55;100582.41;;;10.34;100.00
59608;BME280;45426;44.726;10.390;2023-03-03T18:13:17;100602.50;;;9.86;100.00
59608;BME280;45426;44.726;10.390;2023-03-03T18:21:15;100616.41;;;9.49;100.00
59608;BME280;45426;44.726;10.390;2023-03-03T18:23:45;100621.53;;;9.51;100.00
59608;BME280;45426;44.726;10.390;2023-03-03T18:29:19;100618.97;;;9.63;100.00
59608;BME280;45426;44.726;10.390;2023-03-03T18:40:14;100615.97;;;9.30;100.00
59608;BME280;45426;44.726;10.390;2023-03-03T18:42:37;100618.97;;;9.28;100.00
59608;BME280;45426;44.726;10.390;2023-03-03T18:48:02;100618.00;;;9.16;100.00
59608;BME280;45426;44.726;10.390;2023-03-03T18:56:39;100626.31;;;9.45;100.00
59608;BME280;45426;44.726;10.390;2023-03-03T18:58:37;100627.59;;;9.57;100.00
59608;BME280;45426;44.726;10.390;2023-03-03T19:09:46;100639.72;;;8.58;100.00